Time;durP1;ratioP1;P1;durP2;ratioP2;P2;SDS_P1;SDS_P2;PMS_P1;PMS_P2;Temp;Humidity;BMP_temperature;BMP_pressure;BME280_temperature;BME280_humidity;BME280_pressure;Samples;Min_cycle;Max_cycle;Signal;HPM_P1;HPM_P2
2023/01/15 00:01:51;;;;;;;;;;;;;;;18.49;65.33;99080.55;2331610;75;51495;-78
2023/01/15 00:04:53;;;;;;;;;;;;;;;18.47;65.45;99081.31;2324300;75;51600;-76
2023/01/15 00:07:55;;;;;;;;;;;;;;;18.43;65.57;99080.10;2308067;76;51669;-74
2023/01/15 00:10:56;;;;;;;;;;;;;;;18.37;65.87;99086.34;2329788;75;50034;-76
2023/01/15 00:13:58;;;;;;;;;;;;;;;18.36;66.02;99071.30;2352178;74;50649;-74
2023/01/15 00:16:59;;;;;;;;;;;;;;;18.43;65.99;99068.05;2321346;75;50347;-74
2023/01/15 00:20:01;;;;;;;;;;;;;;;18.55;65.77;99056.60;2245459;77;51194;-75
2023/01/15 00:23:02;;;;;;;;;;;;;;;18.62;65.58;99072.09;2269955;76;50356;-74
2023/01/15 00:29:24;;;;;;;;;;;;;;;18.66;65.41;99077.32;2273643;77;22488;-76
2023/01/15 00:32:28;;;;;;;;;;;;;;;18.64;65.48;99072.70;2274294;76;52333;-74
2023/01/15 00:35:28;;;;;;;;;;;;;;;18.62;65.53;99060.03;2317932;76;22495;-74
2023/01/15 00:38:30;;;;;;;;;;;;;;;18.58;65.64;99054.31;2309911;76;52852;-74
2023/01/15 00:41:32;;;;;;;;;;;;;;;18.57;65.73;99061.22;2323291;76;51456;-74
2023/01/15 00:44:33;;;;;;;;;;;;;;;18.51;65.83;99048.20;2311058;76;51456;-75
2023/01/15 00:47:36;;;;;;;;;;;;;;;18.44;66.18;99036.20;2309983;76;50362;-77
2023/01/15 00:50:38;;;;;;;;;;;;;;;18.44;66.25;99034.86;2322442;76;52046;-74
2023/01/15 00:53:40;;;;;;;;;;;;;;;18.49;66.12;99020.28;2309757;75;51528;-74
2023/01/15 00:56:41;;;;;;;;;;;;;;;18.50;66.10;99017.92;2286530;76;53301;-74
2023/01/15 00:59:43;;;;;;;;;;;;;;;18.50;66.12;99028.64;2309944;76;50159;-73
2023/01/15 01:02:44;;;;;;;;;;;;;;;18.49;66.15;99033.67;2310577;76;50241;-74
2023/01/15 01:05:46;;;;;;;;;;;;;;;18.46;66.21;99027.95;2330469;75;50309;-74
2023/01/15 01:08:48;;;;;;;;;;;;;;;18.44;66.28;99016.64;2291853;76;50081;-76
2023/01/15 01:11:49;;;;;;;;;;;;;;;18.41;66.33;99009.87;2305566;77;50257;-76
2023/01/15 01:14:51;;;;;;;;;;;;;;;18.34;66.51;99002.95;2310898;76;51409;-75
2023/01/15 01:17:52;;;;;;;;;;;;;;;18.29;66.79;99007.65;2312756;77;50317;-75
2023/01/15 01:20:54;;;;;;;;;;;;;;;18.31;66.82;99008.22;2289490;76;50508;-75
2023/01/15 01:23:57;;;;;;;;;;;;;;;18.40;66.66;99010.92;2336944;75;50382;-75
2023/01/15 01:26:59;;;;;;;;;;;;;;;18.52;66.36;99000.80;2352496;75;51369;-75
2023/01/15 01:30:00;;;;;;;;;;;;;;;18.61;66.10;99007.52;2352517;75;51411;-75
2023/01/15 01:33:02;;;;;;;;;;;;;;;18.63;66.00;99018.30;2299802;75;50960;-75
2023/01/15 01:36:03;;;;;;;;;;;;;;;18.64;65.96;99027.16;2274223;76;51430;-75
2023/01/15 01:39:05;;;;;;;;;;;;;;;18.62;65.96;99022.53;2265309;75;51547;-75
2023/01/15 01:42:14;;;;;;;;;;;;;;;18.60;66.00;99009.87;2352477;75;50649;-74
2023/01/15 01:45:24;;;;;;;;;;;;;;;18.57;66.07;99011.66;2284915;76;51835;-74
2023/01/15 01:48:27;;;;;;;;;;;;;;;18.55;66.12;98996.33;2291229;75;50332;-76
2023/01/15 01:51:30;;;;;;;;;;;;;;;18.49;66.21;98995.37;2283413;75;50413;-75
2023/01/15 01:54:31;;;;;;;;;;;;;;;18.44;66.50;98988.52;2284571;76;51400;-75
2023/01/15 01:57:33;;;;;;;;;;;;;;;18.47;66.45;99000.97;2236512;78;52342;-75
2023/01/15 02:00:34;;;;;;;;;;;;;;;18.51;66.28;99004.00;2286763;76;51396;-75
2023/01/15 02:03:36;;;;;;;;;;;;;;;18.52;66.27;99003.48;2285466;76;50304;-75
2023/01/15 02:06:38;;;;;;;;;;;;;;;18.50;66.27;99000.52;2346075;75;51478;-75
2023/01/15 02:09:39;;;;;;;;;;;;;;;18.49;66.30;99001.53;2314742;75;52316;-75
2023/01/15 02:12:41;;;;;;;;;;;;;;;18.47;66.35;98992.94;2312791;76;51416;-75
2023/01/15 02:15:47;;;;;;;;;;;;;;;18.46;66.37;98994.48;2315962;75;50107;-75
2023/01/15 02:19:02;;;;;;;;;;;;;;;18.41;66.50;98998.34;2289015;77;50403;-75
2023/01/15 02:22:11;;;;;;;;;;;;;;;18.31;66.86;98985.46;2287617;76;50996;-75
2023/01/15 02:25:18;;;;;;;;;;;;;;;18.28;67.06;98979.22;2324672;75;50268;-76
2023/01/15 02:28:21;;;;;;;;;;;;;;;18.32;67.06;98991.66;2352553;75;50459;-75
2023/01/15 02:31:30;;;;;;;;;;;;;;;18.44;66.81;99000.05;2349007;75;50267;-76
2023/01/15 02:34:33;;;;;;;;;;;;;;;18.54;66.57;98995.52;2329424;75;52561;-75
2023/01/15 02:37:36;;;;;;;;;;;;;;;18.62;66.29;98992.54;2352437;75;51483;-75
2023/01/15 02:40:38;;;;;;;;;;;;;;;18.66;66.19;98989.72;2352504;75;50221;-75
2023/01/15 02:43:39;;;;;;;;;;;;;;;18.65;66.16;98988.59;2289576;75;51266;-75
2023/01/15 02:46:41;;;;;;;;;;;;;;;18.65;66.29;98987.25;2315078;75;50547;-75
2023/01/15 02:49:43;;;;;;;;;;;;;;;18.63;66.34;98976.78;2323372;76;50646;-75
2023/01/15 02:52:45;;;;;;;;;;;;;;;18.62;66.39;98972.97;2308377;76;51435;-75
2023/01/15 02:55:47;;;;;;;;;;;;;;;18.61;66.37;98975.37;2312793;76;50287;-74
2023/01/15 02:58:49;;;;;;;;;;;;;;;18.58;66.45;98977.16;2312797;77;51384;-74
2023/01/15 03:01:53;;;;;;;;;;;;;;;18.52;66.63;98982.05;2312891;75;50655;-75
2023/01/15 03:05:08;;;;;;;;;;;;;;;18.49;66.80;98981.98;2312611;76;50662;-75
2023/01/15 03:08:10;;;;;;;;;;;;;;;18.52;66.70;98986.07;2312776;77;50447;-75
2023/01/15 03:11:12;;;;;;;;;;;;;;;18.53;66.69;98979.69;2291131;76;51217;-75
2023/01/15 03:14:15;;;;;;;;;;;;;;;18.52;66.70;98978.03;2317905;75;51573;-75
2023/01/15 03:17:22;;;;;;;;;;;;;;;18.49;66.74;98970.73;2334888;76;51788;-75
2023/01/15 03:20:24;;;;;;;;;;;;;;;18.47;66.81;98978.20;2323695;75;51537;-75
2023/01/15 03:23:26;;;;;;;;;;;;;;;18.44;66.83;98967.91;2280678;76;51289;-75
2023/01/15 03:26:28;;;;;;;;;;;;;;;18.42;66.90;98977.20;2312632;75;50314;-74
2023/01/15 03:29:31;;;;;;;;;;;;;;;18.35;67.06;98970.60;2291706;76;50714;-75
2023/01/15 03:32:33;;;;;;;;;;;;;;;18.27;67.44;98977.59;2289061;75;50683;-75
2023/01/15 03:35:45;;;;;;;;;;;;;;;18.33;67.43;98968.66;2261196;77;52677;-74
2023/01/15 03:38:49;;;;;;;;;;;;;;;18.44;67.27;98961.21;2284755;76;51529;-74
2023/01/15 03:42:01;;;;;;;;;;;;;;;18.55;67.02;98973.07;2285416;76;22442;-75
2023/01/15 03:45:13;;;;;;;;;;;;;;;18.62;66.79;98981.02;2273280;76;50660;-74
2023/01/15 03:48:16;;;;;;;;;;;;;;;18.64;66.70;98977.59;2288607;77;51777;-74
2023/01/15 03:51:19;;;;;;;;;;;;;;;18.64;66.68;98976.25;2312077;76;50703;-75
2023/01/15 03:54:22;;;;;;;;;;;;;;;18.62;66.67;98989.05;2312253;76;51357;-74
2023/01/15 03:57:32;;;;;;;;;;;;;;;18.59;66.72;98989.50;2312774;77;50288;-75
2023/01/15 04:00:35;;;;;;;;;;;;;;;18.56;66.78;98989.95;2290510;76;51739;-74
2023/01/15 04:03:36;;;;;;;;;;;;;;;18.53;66.79;98988.54;2311836;75;50348;-75
2023/01/15 04:06:38;;;;;;;;;;;;;;;18.48;66.95;98990.54;2285418;76;50227;-75
2023/01/15 04:09:40;;;;;;;;;;;;;;;18.44;67.27;98981.30;2284573;77;50287;-75
2023/01/15 04:12:41;;;;;;;;;;;;;;;18.47;67.23;98976.86;2263010;75;50109;-74
2023/01/15 04:15:43;;;;;;;;;;;;;;;18.55;67.03;98982.94;2287574;76;50781;-74
2023/01/15 04:18:44;;;;;;;;;;;;;;;18.55;66.95;99025.80;2309779;76;50528;-76
2023/01/15 04:21:46;;;;;;;;;;;;;;;18.55;66.98;99033.83;2311087;75;50387;-74
2023/01/15 04:24:47;;;;;;;;;;;;;;;18.53;67.02;99047.98;2276074;75;51604;-75
2023/01/15 04:27:49;;;;;;;;;;;;;;;18.50;66.99;99046.58;2352391;75;51456;-75
2023/01/15 04:30:51;;;;;;;;;;;;;;;18.46;67.00;99063.59;2328896;75;51588;-75
2023/01/15 04:33:52;;;;;;;;;;;;;;;18.43;67.07;99066.71;2328072;75;50667;-75
2023/01/15 04:36:54;;;;;;;;;;;;;;;18.37;67.23;99066.27;2327750;75;50957;-75
2023/01/15 04:39:56;;;;;;;;;;;;;;;18.33;67.40;99074.42;2352410;75;50263;-75
2023/01/15 04:46:19;;;;;;;;;;;;;;;18.48;67.11;99076.77;2309740;76;22329;-75
2023/01/15 04:49:20;;;;;;;;;;;;;;;18.57;66.87;99092.03;2290906;77;51694;-75
2023/01/15 04:52:22;;;;;;;;;;;;;;;18.60;66.78;99103.14;2312584;77;51631;-75
2023/01/15 04:55:23;;;;;;;;;;;;;;;18.61;66.76;99117.34;2338877;75;51487;-75
2023/01/15 04:58:25;;;;;;;;;;;;;;;18.60;66.73;99115.69;2328850;75;51405;-75
2023/01/15 05:01:26;;;;;;;;;;;;;;;18.59;66.75;99120.76;2352405;75;51557;-75
2023/01/15 05:04:28;;;;;;;;;;;;;;;18.56;66.81;99122.02;2351643;75;51318;-75
2023/01/15 05:07:30;;;;;;;;;;;;;;;18.54;66.85;99117.39;2298206;76;50715;-75
2023/01/15 05:10:31;;;;;;;;;;;;;;;18.47;66.93;99121.48;2291070;77;51444;-75
2023/01/15 05:13:33;;;;;;;;;;;;;;;18.42;67.18;99132.04;2320472;75;50512;-76
2023/01/15 05:16:34;;;;;;;;;;;;;;;18.40;67.30;99123.92;2308077;75;50444;-75
2023/01/15 05:19:36;;;;;;;;;;;;;;;18.49;67.12;99127.42;2290614;77;54095;-75
2023/01/15 05:22:38;;;;;;;;;;;;;;;18.57;66.84;99122.83;2290046;77;51688;-74
2023/01/15 05:25:39;;;;;;;;;;;;;;;18.59;66.75;99118.08;2264923;77;52281;-74
2023/01/15 05:28:41;;;;;;;;;;;;;;;18.60;66.70;99113.01;2302344;75;51372;-74
2023/01/15 05:31:44;;;;;;;;;;;;;;;18.60;66.74;99130.42;2284702;77;51510;-74
2023/01/15 05:34:45;;;;;;;;;;;;;;;18.57;66.75;99125.51;2287339;76;50669;-75
2023/01/15 05:37:47;;;;;;;;;;;;;;;18.53;66.80;99129.69;2304718;77;52419;-74
2023/01/15 05:40:48;;;;;;;;;;;;;;;18.50;66.84;99137.11;2293627;76;50451;-75
2023/01/15 05:43:50;;;;;;;;;;;;;;;18.46;66.92;99140.44;2328342;75;51439;-75
2023/01/15 05:46:53;;;;;;;;;;;;;;;18.38;67.17;99126.80;2268949;76;51504;-75
2023/01/15 05:49:55;;;;;;;;;;;;;;;18.39;67.21;99132.45;2289069;76;52493;-75
2023/01/15 05:52:56;;;;;;;;;;;;;;;18.45;67.15;99135.61;2321818;76;50197;-75
2023/01/15 05:56:00;;;;;;;;;;;;;;;18.55;66.85;99128.92;2312870;77;50337;-75
2023/01/15 05:59:01;;;;;;;;;;;;;;;18.60;66.74;99140.64;2348041;75;51475;-76
2023/01/15 06:02:03;;;;;;;;;;;;;;;18.60;66.59;99131.77;2329021;75;52482;-74
2023/01/15 06:05:05;;;;;;;;;;;;;;;18.60;66.60;99127.74;2318136;75;50723;-74
2023/01/15 06:08:06;;;;;;;;;;;;;;;18.57;66.62;99123.64;2313733;76;50630;-75
2023/01/15 06:11:09;;;;;;;;;;;;;;;18.55;66.75;99124.91;2291563;76;51431;-75
2023/01/15 06:14:11;;;;;;;;;;;;;;;18.52;66.81;99130.70;2300269;75;49654;-74
2023/01/15 06:17:13;;;;;;;;;;;;;;;18.47;66.86;99118.81;2339101;75;51398;-75
2023/01/15 06:20:15;;;;;;;;;;;;;;;18.40;67.09;99110.01;2344953;75;50681;-74
2023/01/15 06:23:17;;;;;;;;;;;;;;;18.38;67.19;99112.08;2291343;76;50238;-74
2023/01/15 06:26:19;;;;;;;;;;;;;;;18.46;67.09;99117.16;2266090;77;52406;-74
2023/01/15 06:29:20;;;;;;;;;;;;;;;18.55;66.88;99119.55;2295358;77;49914;-75
2023/01/15 06:32:22;;;;;;;;;;;;;;;18.57;66.81;99117.47;2318090;75;51917;-75
2023/01/15 06:35:23;;;;;;;;;;;;;;;18.58;66.76;99116.45;2328903;75;51427;-75
2023/01/15 06:38:25;;;;;;;;;;;;;;;18.56;66.74;99124.70;2295710;76;52437;-75
2023/01/15 06:48:05;;;;;;;;;;;;;;;18.49;66.86;99142.67;2282010;75;22352;-75
2023/01/15 06:51:07;;;;;;;;;;;;;;;18.41;67.03;99138.41;2256434;76;50898;-74
2023/01/15 06:54:09;;;;;;;;;;;;;;;18.36;67.21;99142.27;2275966;76;53510;-75
2023/01/15 06:57:10;;;;;;;;;;;;;;;18.41;67.20;99133.58;2281683;77;50672;-75
2023/01/15 07:00:12;;;;;;;;;;;;;;;18.50;67.01;99137.64;2278667;75;51408;-73
2023/01/15 07:03:14;;;;;;;;;;;;;;;18.58;66.76;99139.22;2262990;76;50713;-73
2023/01/15 07:06:15;;;;;;;;;;;;;;;18.60;66.69;99141.98;2312771;77;50725;-75
2023/01/15 07:09:17;;;;;;;;;;;;;;;18.63;66.58;99143.40;2312707;77;51628;-73
2023/01/15 07:12:19;;;;;;;;;;;;;;;18.59;66.58;99151.03;2295333;77;51456;-74
2023/01/15 07:15:20;;;;;;;;;;;;;;;18.58;66.59;99163.33;2262358;76;51274;-75
2023/01/15 07:18:22;;;;;;;;;;;;;;;18.56;66.63;99168.89;2292784;76;50189;-74
2023/01/15 07:21:23;;;;;;;;;;;;;;;18.52;66.69;99164.19;2278768;77;50234;-74
2023/01/15 07:24:25;;;;;;;;;;;;;;;18.46;66.79;99161.34;2302004;76;50889;-74
2023/01/15 07:27:26;;;;;;;;;;;;;;;18.40;67.00;99162.23;2311945;76;52471;-74
2023/01/15 07:30:28;;;;;;;;;;;;;;;18.44;67.01;99158.58;2331085;75;51579;-73
2023/01/15 07:33:30;;;;;;;;;;;;;;;18.53;66.81;99169.86;2352095;75;51401;-73
2023/01/15 07:36:31;;;;;;;;;;;;;;;18.58;66.61;99168.16;2328702;75;51514;-73
2023/01/15 07:39:33;;;;;;;;;;;;;;;18.60;66.56;99167.92;2328554;75;51443;-73
2023/01/15 07:52:33;;;;;;;;;;;;;;;18.50;66.64;99168.44;2352526;75;23159;-73
2023/01/15 07:55:35;;;;;;;;;;;;;;;18.46;66.67;99184.11;2328668;75;51483;-74
2023/01/15 07:58:36;;;;;;;;;;;;;;;18.38;66.95;99189.73;2351834;75;51510;-75
2023/01/15 08:01:38;;;;;;;;;;;;;;;18.38;67.04;99194.28;2302274;75;51559;-74
2023/01/15 08:04:39;;;;;;;;;;;;;;;18.47;66.96;99197.81;2253020;76;52335;-72
2023/01/15 08:07:41;;;;;;;;;;;;;;;18.65;66.38;99191.70;2327630;75;50489;-73
2023/01/15 08:17:22;;;;;;;;;;;;;;;18.82;65.35;99197.34;2310269;75;24314;-72
2023/01/15 08:20:25;;;;;;;;;;;;;;;18.76;65.57;99180.81;2292460;75;53650;-72
2023/01/15 08:23:26;;;;;;;;;;;;;;;18.76;65.46;99164.73;2270030;75;50673;-72
2023/01/15 08:26:28;;;;;;;;;;;;;;;18.67;65.62;99157.98;2233894;79;51507;-72
2023/01/15 08:29:29;;;;;;;;;;;;;;;18.61;65.77;99170.92;2274281;76;52357;-72
2023/01/15 08:32:31;;;;;;;;;;;;;;;18.52;66.01;99168.20;2265219;76;51551;-72
2023/01/15 08:35:33;;;;;;;;;;;;;;;18.56;65.95;99174.78;2273985;77;50706;-72
2023/01/15 08:38:34;;;;;;;;;;;;;;;18.70;65.51;99182.48;2257046;75;50519;-72
2023/01/15 08:41:36;;;;;;;;;;;;;;;18.80;65.16;99180.66;2330576;75;51026;-72
2023/01/15 08:44:38;;;;;;;;;;;;;;;18.85;64.89;99186.18;2327550;75;50475;-72
2023/01/15 08:47:39;;;;;;;;;;;;;;;18.84;64.88;99191.25;2284884;76;51409;-72
2023/01/15 08:50:41;;;;;;;;;;;;;;;18.84;64.91;99191.25;2316754;75;51467;-72
2023/01/15 08:53:42;;;;;;;;;;;;;;;18.84;64.84;99191.25;2317837;75;52231;-72
2023/01/15 08:56:44;;;;;;;;;;;;;;;18.79;64.95;99195.11;2275518;75;51366;-72
2023/01/15 08:59:46;;;;;;;;;;;;;;;18.75;65.07;99186.35;2283869;77;50267;-72
2023/01/15 09:02:48;;;;;;;;;;;;;;;18.67;65.25;99187.45;2312487;76;51576;-73
2023/01/15 09:05:49;;;;;;;;;;;;;;;18.64;65.33;99185.21;2265510;77;51714;-72
2023/01/15 09:08:51;;;;;;;;;;;;;;;18.65;65.39;99196.22;2290953;77;51444;-73
2023/01/15 09:11:53;;;;;;;;;;;;;;;18.74;65.07;99209.66;2295219;75;51524;-72
2023/01/15 09:14:54;;;;;;;;;;;;;;;18.89;64.66;99218.21;2290416;75;51443;-72
2023/01/15 09:17:56;;;;;;;;;;;;;;;18.92;64.51;99215.09;2289370;76;51738;-73
2023/01/15 09:20:58;;;;;;;;;;;;;;;18.95;64.54;99214.35;2295373;75;49777;-72
2023/01/15 09:23:59;;;;;;;;;;;;;;;18.95;64.50;99205.78;2326286;75;51403;-72
2023/01/15 09:27:01;;;;;;;;;;;;;;;18.97;64.50;99217.64;2315988;75;53103;-72
2023/01/15 09:30:03;;;;;;;;;;;;;;;18.91;64.55;99219.34;2365299;75;51651;-72
2023/01/15 09:33:04;;;;;;;;;;;;;;;18.88;64.59;99225.96;2360127;74;51542;-73
2023/01/15 09:36:06;;;;;;;;;;;;;;;18.83;64.73;99220.44;2356610;75;51558;-71
2023/01/15 09:39:08;;;;;;;;;;;;;;;18.80;64.78;99223.53;2304166;76;51725;-72
2023/01/15 09:42:14;;;;;;;;;;;;;;;18.72;65.00;99226.46;2323122;75;52398;-72
2023/01/15 09:45:18;;;;;;;;;;;;;;;18.71;65.03;99226.98;2352147;74;52350;-73
2023/01/15 09:48:24;;;;;;;;;;;;;;;18.82;64.73;99234.86;2345509;75;50680;-73
2023/01/15 09:51:33;;;;;;;;;;;;;;;18.86;64.55;99237.94;2322794;75;50792;-73
2023/01/15 09:54:39;;;;;;;;;;;;;;;18.89;64.43;99239.66;2289988;76;51713;-73
2023/01/15 09:57:41;;;;;;;;;;;;;;;18.83;64.59;99227.14;2327908;76;50257;-74
2023/01/15 10:00:46;;;;;;;;;;;;;;;18.80;64.59;99233.44;2302429;77;50646;-73
2023/01/15 10:03:49;;;;;;;;;;;;;;;18.71;64.86;99239.57;2312519;76;52163;-73
2023/01/15 10:06:53;;;;;;;;;;;;;;;18.70;64.87;99235.23;2289623;77;51038;-73
2023/01/15 10:09:59;;;;;;;;;;;;;;;18.58;65.22;99234.31;2319587;75;24510;-73
2023/01/15 10:13:02;;;;;;;;;;;;;;;18.57;65.30;99232.66;2351804;75;50777;-72
2023/01/15 10:16:04;;;;;;;;;;;;;;;18.70;65.09;99232.55;2351363;75;50659;-76
2023/01/15 10:19:05;;;;;;;;;;;;;;;18.84;65.07;99221.25;2317027;76;51109;-72
2023/01/15 10:22:09;;;;;;;;;;;;;;;18.92;65.08;99215.09;2281055;76;50216;-71
2023/01/15 10:25:12;;;;;;;;;;;;;;;18.97;64.95;99221.66;2322614;75;50348;-73
2023/01/15 10:28:18;;;;;;;;;;;;;;;18.98;64.97;99221.42;2351356;75;50190;-71
2023/01/15 10:31:21;;;;;;;;;;;;;;;18.83;65.58;99218.25;2328807;75;52344;-71
2023/01/15 10:34:30;;;;;;;;;;;;;;;18.79;65.90;99217.89;2352158;75;50457;-73
2023/01/15 10:37:33;;;;;;;;;;;;;;;18.76;66.23;99218.33;2352506;75;50649;-73
2023/01/15 10:40:36;;;;;;;;;;;;;;;18.79;66.34;99219.75;2352468;75;51474;-71
2023/01/15 10:43:45;;;;;;;;;;;;;;;18.81;66.29;99213.13;2297005;75;51462;-73
2023/01/15 10:46:48;;;;;;;;;;;;;;;18.83;66.29;99210.22;2305389;75;50408;-71
2023/01/15 10:49:50;;;;;;;;;;;;;;;18.84;66.15;99212.69;2350830;75;50442;-71
2023/01/15 10:52:53;;;;;;;;;;;;;;;18.77;66.33;99213.78;2322084;75;50353;-73
2023/01/15 10:55:56;;;;;;;;;;;;;;;18.75;66.40;99230.07;2266427;77;51235;-71
2023/01/15 10:59:00;;;;;;;;;;;;;;;18.75;66.44;99223.87;2287874;76;50463;-74
2023/01/15 11:02:01;;;;;;;;;;;;;;;18.68;66.82;99226.09;2290210;76;50308;-73
2023/01/15 11:05:03;;;;;;;;;;;;;;;18.66;67.02;99230.84;2351873;75;50285;-73
2023/01/15 11:08:06;;;;;;;;;;;;;;;18.62;67.22;99222.92;2329920;75;51254;-73
2023/01/15 11:11:16;;;;;;;;;;;;;;;18.62;67.13;99232.30;2352333;75;50303;-73
2023/01/15 11:20:59;;;;;;;;;;;;;;;18.58;67.52;99241.02;2313190;77;23330;-74
2023/01/15 11:24:00;;;;;;;;;;;;;;;18.69;67.28;99230.92;2290610;77;51459;-74
2023/01/15 11:27:02;;;;;;;;;;;;;;;18.82;66.92;99224.67;2312703;77;51462;-74
2023/01/15 11:30:04;;;;;;;;;;;;;;;18.93;66.78;99236.00;2312777;77;51256;-73
2023/01/15 11:33:09;;;;;;;;;;;;;;;18.91;66.81;99232.22;2316709;76;50621;-74
2023/01/15 11:36:21;;;;;;;;;;;;;;;18.93;66.71;99238.19;2311042;76;23811;-75
2023/01/15 11:39:25;;;;;;;;;;;;;;;18.93;66.76;99240.02;2312791;77;51495;-74
2023/01/15 11:52:28;;;;;;;;;;;;;;;18.82;66.88;99217.44;2352647;75;22445;-73
2023/01/15 11:55:29;;;;;;;;;;;;;;;18.80;67.19;99215.50;2326341;75;51545;-72
2023/01/15 11:58:35;;;;;;;;;;;;;;;18.91;66.99;99210.78;2265390;77;52430;-73
2023/01/15 12:01:40;;;;;;;;;;;;;;;18.89;66.80;99208.83;2311366;75;50375;-74
2023/01/15 12:04:58;;;;;;;;;;;;;;;18.86;66.85;99217.31;2312458;75;50344;-74
2023/01/15 12:07:58;;;;;;;;;;;;;;;18.73;67.37;99212.05;2312345;75;22353;-74
2023/01/15 12:11:03;;;;;;;;;;;;;;;18.69;67.81;99214.84;2312802;77;50437;-75
2023/01/15 12:14:10;;;;;;;;;;;;;;;18.69;67.80;99222.89;2312655;75;52077;-73
2023/01/15 12:17:22;;;;;;;;;;;;;;;18.66;68.16;99217.97;2341922;75;50274;-73
2023/01/15 12:20:24;;;;;;;;;;;;;;;18.63;67.99;99215.20;2314327;76;50829;-74
2023/01/15 12:23:34;;;;;;;;;;;;;;;18.62;68.05;99214.08;2320591;75;50972;-75
2023/01/15 12:26:40;;;;;;;;;;;;;;;18.60;67.96;99216.14;2292969;77;51401;-73
2023/01/15 12:29:46;;;;;;;;;;;;;;;18.61;68.21;99227.18;2311380;75;50250;-75
2023/01/15 12:32:49;;;;;;;;;;;;;;;18.65;68.18;99220.33;2312739;77;51284;-74
2023/01/15 12:35:55;;;;;;;;;;;;;;;18.68;68.06;99233.31;2341343;75;51510;-76
2023/01/15 12:39:00;;;;;;;;;;;;;;;18.69;68.00;99216.19;2274569;78;22448;-74
2023/01/15 12:45:24;;;;;;;;;;;;;;;18.70;67.90;99209.78;2274531;77;22176;-73
2023/01/15 12:48:28;;;;;;;;;;;;;;;18.71;67.86;99203.40;2312125;75;50220;-76
2023/01/15 12:51:31;;;;;;;;;;;;;;;18.71;67.79;99200.72;2312386;76;51932;-74
2023/01/15 12:54:40;;;;;;;;;;;;;;;18.70;67.73;99196.38;2312445;76;50393;-76
2023/01/15 12:57:45;;;;;;;;;;;;;;;18.71;67.64;99203.40;2309693;76;50400;-73
2023/01/15 13:00:48;;;;;;;;;;;;;;;18.70;67.62;99193.70;2324509;76;50808;-74
2023/01/15 13:03:54;;;;;;;;;;;;;;;18.70;67.73;99202.58;2319243;75;51239;-74
2023/01/15 13:06:57;;;;;;;;;;;;;;;18.73;67.82;99205.34;2323689;76;51475;-74
2023/01/15 13:10:19;;;;;;;;;;;;;;;18.79;67.56;99196.45;2323989;76;51514;-73
2023/01/15 13:13:23;;;;;;;;;;;;;;;18.77;67.38;99198.52;2269699;77;51510;-73
2023/01/15 13:16:35;;;;;;;;;;;;;;;18.73;67.55;99204.01;2253087;78;50298;-73
2023/01/15 13:19:41;;;;;;;;;;;;;;;18.74;67.39;99204.82;2276171;77;51623;-73
2023/01/15 13:22:44;;;;;;;;;;;;;;;18.74;67.38;99185.54;2303327;76;50669;-70
2023/01/15 13:25:48;;;;;;;;;;;;;;;18.76;67.30;99193.40;2316736;75;51501;-74
2023/01/15 13:29:03;;;;;;;;;;;;;;;18.66;67.46;99197.35;2322697;75;52593;-72
2023/01/15 13:32:13;;;;;;;;;;;;;;;18.61;67.53;99223.16;2294232;76;50719;-73
2023/01/15 13:35:16;;;;;;;;;;;;;;;18.55;67.63;99207.45;2317014;75;50682;-73
2023/01/15 13:38:19;;;;;;;;;;;;;;;18.56;67.55;99212.28;2313011;75;50770;-73
2023/01/15 13:44:25;;;;;;;;;;;;;;;18.49;67.46;99208.30;2266085;76;21870;-72
2023/01/15 13:47:28;;;;;;;;;;;;;;;18.42;67.59;99209.70;2335012;75;50693;-73
2023/01/15 13:50:33;;;;;;;;;;;;;;;18.37;67.61;99209.53;2315066;75;50736;-73
2023/01/15 13:53:39;;;;;;;;;;;;;;;18.38;67.50;99202.31;2291155;75;51816;-74
2023/01/15 13:56:40;;;;;;;;;;;;;;;18.33;67.59;99213.67;2312579;75;50391;-72
2023/01/15 13:59:43;;;;;;;;;;;;;;;18.33;67.57;99225.72;2329975;75;51561;-73
2023/01/15 14:02:46;;;;;;;;;;;;;;;18.28;67.91;99235.73;2348627;75;51612;-73
2023/01/15 14:05:49;;;;;;;;;;;;;;;18.36;67.79;99226.62;2355696;74;52685;-74
2023/01/15 14:08:51;;;;;;;;;;;;;;;18.47;67.52;99225.94;2350769;75;51677;-74
2023/01/15 14:12:03;;;;;;;;;;;;;;;18.58;67.20;99219.06;2352051;75;50395;-73
2023/01/15 14:15:18;;;;;;;;;;;;;;;18.67;67.01;99219.59;2271840;77;51507;-74
2023/01/15 14:18:22;;;;;;;;;;;;;;;18.68;66.85;99222.59;2304530;76;52445;-73
2023/01/15 14:21:40;;;;;;;;;;;;;;;18.65;66.64;99235.91;2312597;76;51473;-73
2023/01/15 14:25:00;;;;;;;;;;;;;;;18.67;66.47;99239.69;2319394;76;51560;-74
2023/01/15 14:28:20;;;;;;;;;;;;;;;18.65;66.41;99259.17;2291293;75;50105;-74
2023/01/15 14:31:20;;;;;;;;;;;;;;;18.61;66.46;99264.69;2286292;77;22441;-74
2023/01/15 14:34:23;;;;;;;;;;;;;;;18.55;66.53;99273.56;2284119;76;51442;-74
2023/01/15 14:37:32;;;;;;;;;;;;;;;18.44;66.77;99267.86;2284447;76;50478;-74
2023/01/15 14:40:34;;;;;;;;;;;;;;;18.46;66.79;99278.38;2286647;76;50562;-74
2023/01/15 14:43:36;;;;;;;;;;;;;;;18.56;66.53;99286.76;2260775;76;52545;-74
2023/01/15 14:46:40;;;;;;;;;;;;;;;18.62;66.28;99289.09;2284522;76;51528;-74
2023/01/15 14:49:48;;;;;;;;;;;;;;;18.66;66.08;99291.64;2287083;76;22361;-74
2023/01/15 14:52:48;;;;;;;;;;;;;;;18.68;65.92;99302.97;2292511;76;22405;-77
2023/01/15 14:55:51;;;;;;;;;;;;;;;18.68;65.77;99313.69;2298815;76;51523;-74
2023/01/15 14:58:54;;;;;;;;;;;;;;;18.63;65.84;99315.67;2312657;75;51629;-73
2023/01/15 15:02:03;;;;;;;;;;;;;;;18.61;65.83;99320.42;2291408;76;50308;-74
2023/01/15 15:05:10;;;;;;;;;;;;;;;18.57;65.89;99319.72;2284666;76;50329;-75
2023/01/15 15:08:10;;;;;;;;;;;;;;;18.44;66.23;99324.11;2260461;78;22417;-74
2023/01/15 15:12:17;;;;;;;;;;;;;;;18.40;64.19;99319.42;2292007;75;50403;-73
2023/01/15 15:14:19;;;;;;;;;;;;;;;18.48;64.33;99320.50;2347243;75;23351;-73
2023/01/15 15:17:22;;;;;;;;;;;;;;;18.61;64.76;99315.59;2352584;75;50733;-75
2023/01/15 15:20:28;;;;;;;;;;;;;;;18.71;65.28;99325.31;2353993;75;51024;-74
2023/01/15 15:23:47;;;;;;;;;;;;;;;18.77;65.18;99333.84;2337669;75;51406;-74
2023/01/15 15:26:48;;;;;;;;;;;;;;;18.82;65.56;99323.30;2285269;77;50576;-75
2023/01/15 15:29:50;;;;;;;;;;;;;;;18.81;66.02;99323.53;2288905;77;50450;-74
2023/01/15 15:32:52;;;;;;;;;;;;;;;18.79;66.24;99325.08;2240617;77;51014;-75
2023/01/15 15:35:54;;;;;;;;;;;;;;;18.75;66.31;99327.03;2310312;76;50312;-76
2023/01/15 15:38:56;;;;;;;;;;;;;;;18.76;66.26;99325.52;2306857;77;51523;-75
2023/01/15 15:48:53;;;;;;;;;;;;;;;18.70;66.46;99323.65;2326667;75;22364;-75
2023/01/15 15:51:55;;;;;;;;;;;;;;;18.74;66.43;99316.84;2352481;75;51520;-75
2023/01/15 15:55:02;;;;;;;;;;;;;;;18.72;66.44;99321.05;2275859;76;50712;-75
2023/01/15 15:58:04;;;;;;;;;;;;;;;18.67;66.62;99322.75;2319782;75;51231;-77
2023/01/15 16:01:05;;;;;;;;;;;;;;;18.66;67.49;99317.10;2330536;75;50295;-76
2023/01/15 16:04:10;;;;;;;;;;;;;;;18.66;67.87;99309.88;2293572;77;50555;-74
2023/01/15 16:07:12;;;;;;;;;;;;;;;18.65;68.43;99316.28;2312245;76;50798;-78
2023/01/15 16:10:14;;;;;;;;;;;;;;;18.63;69.17;99314.86;2291067;77;52450;-75
2023/01/15 16:13:29;;;;;;;;;;;;;;;18.60;69.79;99309.41;2312534;76;50672;-77
2023/01/15 16:16:31;;;;;;;;;;;;;;;18.61;70.03;99308.89;2312866;77;50425;-76
2023/01/15 16:19:32;;;;;;;;;;;;;;;18.63;70.31;99306.82;2312839;77;50291;-76
2023/01/15 16:22:34;;;;;;;;;;;;;;;18.71;69.89;99315.41;2290178;77;51193;-74
2023/01/15 16:25:36;;;;;;;;;;;;;;;18.72;69.60;99318.38;2297647;75;50774;-72
2023/01/15 16:28:42;;;;;;;;;;;;;;;18.70;69.83;99315.61;2287290;77;50308;-74
2023/01/15 16:31:44;;;;;;;;;;;;;;;18.81;69.99;99310.95;2284618;78;50311;-74
2023/01/15 16:34:46;;;;;;;;;;;;;;;18.83;70.23;99305.35;2280660;75;51693;-73
2023/01/15 16:37:49;;;;;;;;;;;;;;;18.79;70.36;99313.02;2345418;75;50365;-75
2023/01/15 16:40:50;;;;;;;;;;;;;;;18.78;70.43;99299.33;2351210;75;50329;-75
2023/01/15 16:43:56;;;;;;;;;;;;;;;18.78;70.43;99298.48;2352159;75;50332;-73
2023/01/15 16:46:58;;;;;;;;;;;;;;;18.77;70.45;99305.70;2320751;75;51792;-74
2023/01/15 16:50:04;;;;;;;;;;;;;;;18.71;70.63;99302.02;2312871;77;50540;-73
2023/01/15 16:53:06;;;;;;;;;;;;;;;18.74;70.71;99308.80;2293102;76;50706;-73
2023/01/15 16:56:24;;;;;;;;;;;;;;;18.76;70.80;99299.25;2303595;75;51486;-74